sensor_id;sensor_type;location;lat;lon;timestamp;temperature;humidity
49253;DHT22;35103;47.952;-1.502;2022-07-29T00:01:52;21.80;50.40
49253;DHT22;35103;47.952;-1.502;2022-07-29T00:04:18;21.80;51.00
49253;DHT22;35103;47.952;-1.502;2022-07-29T00:06:44;21.80;51.20
49253;DHT22;35103;47.952;-1.502;2022-07-29T00:09:09;21.80;51.40
49253;DHT22;35103;47.952;-1.502;2022-07-29T00:11:35;21.80;51.20
49253;DHT22;35103;47.952;-1.502;2022-07-29T00:14:01;21.80;51.60
49253;DHT22;35103;47.952;-1.502;2022-07-29T00:16:26;21.80;51.70
49253;DHT22;35103;47.952;-1.502;2022-07-29T00:18:52;21.70;51.50
49253;DHT22;35103;47.952;-1.502;2022-07-29T00:21:17;21.70;52.00
49253;DHT22;35103;47.952;-1.502;2022-07-29T00:23:43;21.70;52.00
49253;DHT22;35103;47.952;-1.502;2022-07-29T00:26:08;21.70;52.20
49253;DHT22;35103;47.952;-1.502;2022-07-29T00:28:34;21.70;52.20
49253;DHT22;35103;47.952;-1.502;2022-07-29T00:31:00;21.80;52.40
49253;DHT22;35103;47.952;-1.502;2022-07-29T00:33:25;21.70;52.20
49253;DHT22;35103;47.952;-1.502;2022-07-29T00:35:51;21.80;52.40
49253;DHT22;35103;47.952;-1.502;2022-07-29T00:38:18;21.80;52.70
49253;DHT22;35103;47.952;-1.502;2022-07-29T00:40:44;21.80;52.90
49253;DHT22;35103;47.952;-1.502;2022-07-29T00:43:11;21.80;52.60
49253;DHT22;35103;47.952;-1.502;2022-07-29T00:45:37;21.80;52.70
49253;DHT22;35103;47.952;-1.502;2022-07-29T00:48:03;21.80;52.60
49253;DHT22;35103;47.952;-1.502;2022-07-29T00:50:33;21.80;52.50
49253;DHT22;35103;47.952;-1.502;2022-07-29T00:52:59;21.80;52.70
49253;DHT22;35103;47.952;-1.502;2022-07-29T00:55:24;21.70;52.90
49253;DHT22;35103;47.952;-1.502;2022-07-29T00:57:50;21.70;53.20
49253;DHT22;35103;47.952;-1.502;2022-07-29T01:00:25;21.70;53.40
49253;DHT22;35103;47.952;-1.502;2022-07-29T01:02:51;21.70;53.20
49253;DHT22;35103;47.952;-1.502;2022-07-29T01:05:19;21.60;53.20
49253;DHT22;35103;47.952;-1.502;2022-07-29T01:07:45;21.60;53.10
49253;DHT22;35103;47.952;-1.502;2022-07-29T01:10:12;21.60;53.10
49253;DHT22;35103;47.952;-1.502;2022-07-29T01:12:40;21.60;53.20
49253;DHT22;35103;47.952;-1.502;2022-07-29T01:15:06;21.60;53.10
49253;DHT22;35103;47.952;-1.502;2022-07-29T01:29:01;21.50;53.40
49253;DHT22;35103;47.952;-1.502;2022-07-29T01:31:51;21.50;53.00
49253;DHT22;35103;47.952;-1.502;2022-07-29T01:34:23;21.50;53.60
49253;DHT22;35103;47.952;-1.502;2022-07-29T01:37:20;21.50;53.60
49253;DHT22;35103;47.952;-1.502;2022-07-29T01:39:49;21.50;53.60
49253;DHT22;35103;47.952;-1.502;2022-07-29T01:45:17;21.50;54.10
49253;DHT22;35103;47.952;-1.502;2022-07-29T01:50:16;21.40;53.90
49253;DHT22;35103;47.952;-1.502;2022-07-29T01:53:04;21.50;53.80
49253;DHT22;35103;47.952;-1.502;2022-07-29T01:55:34;21.40;53.80
49253;DHT22;35103;47.952;-1.502;2022-07-29T01:58:03;21.40;53.70
49253;DHT22;35103;47.952;-1.502;2022-07-29T02:00:31;21.40;53.80
49253;DHT22;35103;47.952;-1.502;2022-07-29T02:02:59;21.40;53.60
49253;DHT22;35103;47.952;-1.502;2022-07-29T02:05:27;21.30;53.70
49253;DHT22;35103;47.952;-1.502;2022-07-29T02:07:55;21.30;53.50
49253;DHT22;35103;47.952;-1.502;2022-07-29T02:10:25;21.30;53.70
49253;DHT22;35103;47.952;-1.502;2022-07-29T02:12:52;21.30;53.50
49253;DHT22;35103;47.952;-1.502;2022-07-29T02:15:19;21.30;53.70
49253;DHT22;35103;47.952;-1.502;2022-07-29T02:18:06;21.30;53.60
49253;DHT22;35103;47.952;-1.502;2022-07-29T02:20:33;21.30;53.40
49253;DHT22;35103;47.952;-1.502;2022-07-29T02:23:00;21.30;53.50
49253;DHT22;35103;47.952;-1.502;2022-07-29T02:25:26;21.30;53.60
49253;DHT22;35103;47.952;-1.502;2022-07-29T02:27:53;21.30;53.50
49253;DHT22;35103;47.952;-1.502;2022-07-29T02:30:20;21.30;53.50
49253;DHT22;35103;47.952;-1.502;2022-07-29T02:32:48;21.30;53.60
49253;DHT22;35103;47.952;-1.502;2022-07-29T02:35:16;21.30;53.30
49253;DHT22;35103;47.952;-1.502;2022-07-29T02:37:44;21.30;53.50
49253;DHT22;35103;47.952;-1.502;2022-07-29T02:40:11;21.30;53.50
49253;DHT22;35103;47.952;-1.502;2022-07-29T02:42:42;21.20;53.40
49253;DHT22;35103;47.952;-1.502;2022-07-29T02:45:09;21.30;53.60
49253;DHT22;35103;47.952;-1.502;2022-07-29T02:47:47;21.20;53.50
49253;DHT22;35103;47.952;-1.502;2022-07-29T02:53:23;21.20;53.40
49253;DHT22;35103;47.952;-1.502;2022-07-29T02:55:56;21.30;53.40
49253;DHT22;35103;47.952;-1.502;2022-07-29T02:58:33;21.30;53.50
49253;DHT22;35103;47.952;-1.502;2022-07-29T03:01:03;21.30;53.20
49253;DHT22;35103;47.952;-1.502;2022-07-29T03:03:34;21.20;53.30
49253;DHT22;35103;47.952;-1.502;2022-07-29T03:06:01;21.20;53.00
49253;DHT22;35103;47.952;-1.502;2022-07-29T03:08:28;21.20;53.50
49253;DHT22;35103;47.952;-1.502;2022-07-29T03:10:55;21.20;53.60
49253;DHT22;35103;47.952;-1.502;2022-07-29T03:13:21;21.20;53.90
49253;DHT22;35103;47.952;-1.502;2022-07-29T03:15:47;21.20;53.90
49253;DHT22;35103;47.952;-1.502;2022-07-29T03:18:14;21.20;54.00
49253;DHT22;35103;47.952;-1.502;2022-07-29T03:20:40;21.20;54.00
49253;DHT22;35103;47.952;-1.502;2022-07-29T03:23:07;21.20;53.90
49253;DHT22;35103;47.952;-1.502;2022-07-29T03:25:33;21.20;54.20
49253;DHT22;35103;47.952;-1.502;2022-07-29T03:27:59;21.10;54.20
49253;DHT22;35103;47.952;-1.502;2022-07-29T03:30:25;21.20;54.60
49253;DHT22;35103;47.952;-1.502;2022-07-29T03:32:51;21.20;54.40
49253;DHT22;35103;47.952;-1.502;2022-07-29T03:35:17;21.20;54.40
49253;DHT22;35103;47.952;-1.502;2022-07-29T03:37:43;21.20;54.30
49253;DHT22;35103;47.952;-1.502;2022-07-29T03:40:13;21.10;54.50
49253;DHT22;35103;47.952;-1.502;2022-07-29T03:42:40;21.20;54.40
49253;DHT22;35103;47.952;-1.502;2022-07-29T03:45:10;21.10;54.20
49253;DHT22;35103;47.952;-1.502;2022-07-29T03:47:40;21.10;54.10
49253;DHT22;35103;47.952;-1.502;2022-07-29T03:50:10;21.10;54.00
49253;DHT22;35103;47.952;-1.502;2022-07-29T03:52:36;21.00;54.10
49253;DHT22;35103;47.952;-1.502;2022-07-29T03:55:03;21.00;54.10
49253;DHT22;35103;47.952;-1.502;2022-07-29T03:57:30;21.00;54.10
49253;DHT22;35103;47.952;-1.502;2022-07-29T03:59:57;20.90;54.20
49253;DHT22;35103;47.952;-1.502;2022-07-29T04:02:23;20.90;54.30
49253;DHT22;35103;47.952;-1.502;2022-07-29T04:04:49;20.90;54.30
49253;DHT22;35103;47.952;-1.502;2022-07-29T04:07:15;21.00;54.30
49253;DHT22;35103;47.952;-1.502;2022-07-29T04:09:41;20.90;54.10
49253;DHT22;35103;47.952;-1.502;2022-07-29T04:12:07;20.90;54.10
49253;DHT22;35103;47.952;-1.502;2022-07-29T04:14:34;20.90;54.30
49253;DHT22;35103;47.952;-1.502;2022-07-29T04:17:00;20.90;55.00
49253;DHT22;35103;47.952;-1.502;2022-07-29T04:19:26;20.90;55.00
49253;DHT22;35103;47.952;-1.502;2022-07-29T04:21:52;20.90;55.00
49253;DHT22;35103;47.952;-1.502;2022-07-29T04:24:17;20.90;55.10
49253;DHT22;35103;47.952;-1.502;2022-07-29T04:26:43;20.90;55.10
49253;DHT22;35103;47.952;-1.502;2022-07-29T04:29:08;20.80;55.10
49253;DHT22;35103;47.952;-1.502;2022-07-29T04:31:34;20.90;55.50
49253;DHT22;35103;47.952;-1.502;2022-07-29T04:34:00;20.80;55.30
49253;DHT22;35103;47.952;-1.502;2022-07-29T04:36:25;20.90;55.70
49253;DHT22;35103;47.952;-1.502;2022-07-29T04:38:51;20.90;55.80
49253;DHT22;35103;47.952;-1.502;2022-07-29T04:41:16;20.90;55.60
49253;DHT22;35103;47.952;-1.502;2022-07-29T04:43:42;20.90;55.90
49253;DHT22;35103;47.952;-1.502;2022-07-29T04:46:07;20.90;55.80
49253;DHT22;35103;47.952;-1.502;2022-07-29T04:48:33;20.80;55.80
49253;DHT22;35103;47.952;-1.502;2022-07-29T04:50:59;20.80;55.90
49253;DHT22;35103;47.952;-1.502;2022-07-29T04:53:24;20.80;56.00
49253;DHT22;35103;47.952;-1.502;2022-07-29T04:55:50;20.80;56.00
49253;DHT22;35103;47.952;-1.502;2022-07-29T04:58:16;20.80;56.20
49253;DHT22;35103;47.952;-1.502;2022-07-29T05:00:41;20.80;56.10
49253;DHT22;35103;47.952;-1.502;2022-07-29T05:03:07;20.70;56.00
49253;DHT22;35103;47.952;-1.502;2022-07-29T05:05:32;20.60;56.30
49253;DHT22;35103;47.952;-1.502;2022-07-29T05:07:58;20.60;56.40
49253;DHT22;35103;47.952;-1.502;2022-07-29T05:10:24;20.60;56.40
49253;DHT22;35103;47.952;-1.502;2022-07-29T05:12:49;20.70;56.40
49253;DHT22;35103;47.952;-1.502;2022-07-29T05:15:15;20.70;56.30
49253;DHT22;35103;47.952;-1.502;2022-07-29T05:17:41;20.70;56.40
49253;DHT22;35103;47.952;-1.502;2022-07-29T05:20:07;20.70;56.30
49253;DHT22;35103;47.952;-1.502;2022-07-29T05:22:33;20.70;56.60
49253;DHT22;35103;47.952;-1.502;2022-07-29T05:24:58;20.80;56.70
49253;DHT22;35103;47.952;-1.502;2022-07-29T05:27:24;20.80;56.70
49253;DHT22;35103;47.952;-1.502;2022-07-29T05:29:50;20.80;56.60
49253;DHT22;35103;47.952;-1.502;2022-07-29T05:32:16;20.80;56.50
49253;DHT22;35103;47.952;-1.502;2022-07-29T05:34:41;20.80;56.60
49253;DHT22;35103;47.952;-1.502;2022-07-29T05:37:07;20.80;56.70
49253;DHT22;35103;47.952;-1.502;2022-07-29T05:39:33;20.90;56.70
49253;DHT22;35103;47.952;-1.502;2022-07-29T05:41:58;20.90;56.50
49253;DHT22;35103;47.952;-1.502;2022-07-29T05:44:24;20.90;56.60
49253;DHT22;35103;47.952;-1.502;2022-07-29T05:46:49;20.90;56.90
49253;DHT22;35103;47.952;-1.502;2022-07-29T05:49:15;21.00;57.10
49253;DHT22;35103;47.952;-1.502;2022-07-29T05:51:41;21.00;57.20
49253;DHT22;35103;47.952;-1.502;2022-07-29T05:54:06;21.10;57.30
49253;DHT22;35103;47.952;-1.502;2022-07-29T05:56:32;21.10;57.00
49253;DHT22;35103;47.952;-1.502;2022-07-29T05:58:57;21.20;57.00
49253;DHT22;35103;47.952;-1.502;2022-07-29T06:01:23;21.20;56.80
49253;DHT22;35103;47.952;-1.502;2022-07-29T06:03:50;21.30;57.10
49253;DHT22;35103;47.952;-1.502;2022-07-29T06:06:15;21.30;56.50
49253;DHT22;35103;47.952;-1.502;2022-07-29T06:08:41;21.30;56.40
49253;DHT22;35103;47.952;-1.502;2022-07-29T06:11:07;21.30;56.40
49253;DHT22;35103;47.952;-1.502;2022-07-29T06:13:32;21.40;56.40
49253;DHT22;35103;47.952;-1.502;2022-07-29T06:15:58;21.40;56.80
49253;DHT22;35103;47.952;-1.502;2022-07-29T06:18:23;21.50;57.40
49253;DHT22;35103;47.952;-1.502;2022-07-29T06:20:50;21.50;57.00
49253;DHT22;35103;47.952;-1.502;2022-07-29T06:23:16;21.60;56.40
49253;DHT22;35103;47.952;-1.502;2022-07-29T06:25:41;21.60;55.90
49253;DHT22;35103;47.952;-1.502;2022-07-29T06:28:07;21.60;55.90
49253;DHT22;35103;47.952;-1.502;2022-07-29T06:30:32;21.60;56.00
49253;DHT22;35103;47.952;-1.502;2022-07-29T06:32:58;21.60;55.90
49253;DHT22;35103;47.952;-1.502;2022-07-29T06:35:24;21.60;55.70
49253;DHT22;35103;47.952;-1.502;2022-07-29T06:37:49;21.60;55.40
49253;DHT22;35103;47.952;-1.502;2022-07-29T06:40:15;21.70;55.60
49253;DHT22;35103;47.952;-1.502;2022-07-29T06:42:44;21.70;55.20
49253;DHT22;35103;47.952;-1.502;2022-07-29T06:45:10;21.70;55.30
49253;DHT22;35103;47.952;-1.502;2022-07-29T06:47:36;21.80;55.30
49253;DHT22;35103;47.952;-1.502;2022-07-29T06:50:03;21.80;55.30
49253;DHT22;35103;47.952;-1.502;2022-07-29T06:52:28;21.80;55.30
49253;DHT22;35103;47.952;-1.502;2022-07-29T06:54:54;21.90;55.00
49253;DHT22;35103;47.952;-1.502;2022-07-29T06:57:19;21.90;54.70
49253;DHT22;35103;47.952;-1.502;2022-07-29T06:59:45;22.00;54.60
49253;DHT22;35103;47.952;-1.502;2022-07-29T07:02:10;22.00;54.40
49253;DHT22;35103;47.952;-1.502;2022-07-29T07:04:36;22.00;54.40
49253;DHT22;35103;47.952;-1.502;2022-07-29T07:07:03;22.10;54.20
49253;DHT22;35103;47.952;-1.502;2022-07-29T07:09:29;22.10;54.00
49253;DHT22;35103;47.952;-1.502;2022-07-29T07:11:54;22.20;54.30
49253;DHT22;35103;47.952;-1.502;2022-07-29T07:14:20;22.30;54.30
49253;DHT22;35103;47.952;-1.502;2022-07-29T07:16:45;22.30;53.90
49253;DHT22;35103;47.952;-1.502;2022-07-29T07:19:11;22.40;53.70
49253;DHT22;35103;47.952;-1.502;2022-07-29T07:21:36;22.40;53.40
49253;DHT22;35103;47.952;-1.502;2022-07-29T07:24:02;22.50;54.00
49253;DHT22;35103;47.952;-1.502;2022-07-29T07:26:28;22.60;54.00
49253;DHT22;35103;47.952;-1.502;2022-07-29T07:28:54;22.70;53.60
49253;DHT22;35103;47.952;-1.502;2022-07-29T07:31:19;22.80;53.70
49253;DHT22;35103;47.952;-1.502;2022-07-29T07:33:45;22.80;53.60
49253;DHT22;35103;47.952;-1.502;2022-07-29T07:36:10;22.90;53.30
49253;DHT22;35103;47.952;-1.502;2022-07-29T07:38:36;23.00;53.20
49253;DHT22;35103;47.952;-1.502;2022-07-29T07:41:02;23.00;53.20
49253;DHT22;35103;47.952;-1.502;2022-07-29T07:43:27;23.10;53.40
49253;DHT22;35103;47.952;-1.502;2022-07-29T07:45:53;23.20;53.10
49253;DHT22;35103;47.952;-1.502;2022-07-29T07:48:19;23.20;52.50
49253;DHT22;35103;47.952;-1.502;2022-07-29T07:50:44;23.30;52.70
49253;DHT22;35103;47.952;-1.502;2022-07-29T07:53:10;23.30;52.50
49253;DHT22;35103;47.952;-1.502;2022-07-29T07:55:40;23.30;52.50
49253;DHT22;35103;47.952;-1.502;2022-07-29T07:58:06;23.30;52.50
49253;DHT22;35103;47.952;-1.502;2022-07-29T08:00:31;23.40;52.30
49253;DHT22;35103;47.952;-1.502;2022-07-29T08:02:57;23.40;52.10
49253;DHT22;35103;47.952;-1.502;2022-07-29T08:05:23;23.40;52.10
49253;DHT22;35103;47.952;-1.502;2022-07-29T08:07:48;23.50;52.00
49253;DHT22;35103;47.952;-1.502;2022-07-29T08:10:15;23.50;51.90
49253;DHT22;35103;47.952;-1.502;2022-07-29T08:12:41;23.60;51.70
49253;DHT22;35103;47.952;-1.502;2022-07-29T08:15:07;23.60;52.10
49253;DHT22;35103;47.952;-1.502;2022-07-29T08:17:33;23.70;52.10
49253;DHT22;35103;47.952;-1.502;2022-07-29T08:19:58;23.80;51.40
49253;DHT22;35103;47.952;-1.502;2022-07-29T08:22:24;23.80;51.10
49253;DHT22;35103;47.952;-1.502;2022-07-29T08:24:50;23.80;51.50
49253;DHT22;35103;47.952;-1.502;2022-07-29T08:27:15;23.90;51.40
49253;DHT22;35103;47.952;-1.502;2022-07-29T08:29:41;23.90;51.50
49253;DHT22;35103;47.952;-1.502;2022-07-29T08:32:06;24.00;51.20
49253;DHT22;35103;47.952;-1.502;2022-07-29T08:34:32;23.90;50.80
49253;DHT22;35103;47.952;-1.502;2022-07-29T08:36:58;24.00;50.70
49253;DHT22;35103;47.952;-1.502;2022-07-29T08:39:24;24.00;50.90
49253;DHT22;35103;47.952;-1.502;2022-07-29T08:41:49;24.00;50.70
49253;DHT22;35103;47.952;-1.502;2022-07-29T08:44:18;24.00;50.30
49253;DHT22;35103;47.952;-1.502;2022-07-29T08:46:44;24.00;50.80
49253;DHT22;35103;47.952;-1.502;2022-07-29T08:49:10;24.10;50.70
49253;DHT22;35103;47.952;-1.502;2022-07-29T08:51:38;24.20;50.80
49253;DHT22;35103;47.952;-1.502;2022-07-29T08:54:04;24.30;50.60
49253;DHT22;35103;47.952;-1.502;2022-07-29T08:56:30;24.30;49.80
49253;DHT22;35103;47.952;-1.502;2022-07-29T08:58:58;24.30;50.70
49253;DHT22;35103;47.952;-1.502;2022-07-29T09:01:25;24.40;50.10
49253;DHT22;35103;47.952;-1.502;2022-07-29T09:03:55;24.40;50.20
49253;DHT22;35103;47.952;-1.502;2022-07-29T09:06:21;24.50;50.00
49253;DHT22;35103;47.952;-1.502;2022-07-29T09:08:47;24.60;50.10
49253;DHT22;35103;47.952;-1.502;2022-07-29T09:11:16;24.60;50.30
49253;DHT22;35103;47.952;-1.502;2022-07-29T09:13:43;24.80;50.50
49253;DHT22;35103;47.952;-1.502;2022-07-29T09:16:08;24.90;49.90
49253;DHT22;35103;47.952;-1.502;2022-07-29T09:18:42;25.00;49.80
49253;DHT22;35103;47.952;-1.502;2022-07-29T09:21:11;25.00;49.70
49253;DHT22;35103;47.952;-1.502;2022-07-29T09:23:36;25.20;49.90
49253;DHT22;35103;47.952;-1.502;2022-07-29T09:26:05;25.30;49.10
49253;DHT22;35103;47.952;-1.502;2022-07-29T09:28:31;25.30;49.60
49253;DHT22;35103;47.952;-1.502;2022-07-29T09:30:57;25.40;49.30
49253;DHT22;35103;47.952;-1.502;2022-07-29T09:33:32;25.40;48.50
49253;DHT22;35103;47.952;-1.502;2022-07-29T09:36:02;25.50;48.80
49253;DHT22;35103;47.952;-1.502;2022-07-29T09:38:32;25.60;47.90
49253;DHT22;35103;47.952;-1.502;2022-07-29T09:40:59;25.50;47.70
49253;DHT22;35103;47.952;-1.502;2022-07-29T09:43:25;25.50;48.20
49253;DHT22;35103;47.952;-1.502;2022-07-29T09:45:51;25.50;48.00
49253;DHT22;35103;47.952;-1.502;2022-07-29T09:48:22;25.60;48.30
49253;DHT22;35103;47.952;-1.502;2022-07-29T09:50:48;25.70;48.70
49253;DHT22;35103;47.952;-1.502;2022-07-29T09:53:37;25.80;47.80
49253;DHT22;35103;47.952;-1.502;2022-07-29T09:56:04;25.70;47.90
49253;DHT22;35103;47.952;-1.502;2022-07-29T09:58:30;25.70;47.00
49253;DHT22;35103;47.952;-1.502;2022-07-29T10:00:56;25.70;46.80
49253;DHT22;35103;47.952;-1.502;2022-07-29T10:03:22;25.60;47.10
49253;DHT22;35103;47.952;-1.502;2022-07-29T10:06:10;25.60;47.30
49253;DHT22;35103;47.952;-1.502;2022-07-29T10:08:37;25.60;47.50
49253;DHT22;35103;47.952;-1.502;2022-07-29T10:11:16;25.60;46.90
49253;DHT22;35103;47.952;-1.502;2022-07-29T10:13:43;25.70;47.70
49253;DHT22;35103;47.952;-1.502;2022-07-29T10:16:11;25.80;47.10
49253;DHT22;35103;47.952;-1.502;2022-07-29T10:18:41;25.80;47.80
49253;DHT22;35103;47.952;-1.502;2022-07-29T10:21:07;25.90;47.80
49253;DHT22;35103;47.952;-1.502;2022-07-29T10:23:34;26.20;48.50
49253;DHT22;35103;47.952;-1.502;2022-07-29T10:26:00;26.60;47.10
49253;DHT22;35103;47.952;-1.502;2022-07-29T10:28:25;26.90;47.50
49253;DHT22;35103;47.952;-1.502;2022-07-29T10:30:52;27.20;47.50
49253;DHT22;35103;47.952;-1.502;2022-07-29T10:44:02;27.80;44.90
49253;DHT22;35103;47.952;-1.502;2022-07-29T10:46:37;27.70;43.60
49253;DHT22;35103;47.952;-1.502;2022-07-29T10:49:14;27.60;43.30
49253;DHT22;35103;47.952;-1.502;2022-07-29T10:51:56;27.60;44.00
49253;DHT22;35103;47.952;-1.502;2022-07-29T10:57:25;27.70;44.30
49253;DHT22;35103;47.952;-1.502;2022-07-29T11:05:07;28.30;44.00
49253;DHT22;35103;47.952;-1.502;2022-07-29T11:07:36;28.30;43.50
49253;DHT22;35103;47.952;-1.502;2022-07-29T11:15:08;28.60;42.90
49253;DHT22;35103;47.952;-1.502;2022-07-29T11:26:22;28.50;41.40
49253;DHT22;35103;47.952;-1.502;2022-07-29T11:31:19;28.30;41.70
49253;DHT22;35103;47.952;-1.502;2022-07-29T11:33:45;28.50;41.60
49253;DHT22;35103;47.952;-1.502;2022-07-29T11:36:15;28.50;41.60
49253;DHT22;35103;47.952;-1.502;2022-07-29T11:38:41;28.40;41.20
49253;DHT22;35103;47.952;-1.502;2022-07-29T11:41:26;28.30;40.80
49253;DHT22;35103;47.952;-1.502;2022-07-29T11:43:59;28.30;39.90
49253;DHT22;35103;47.952;-1.502;2022-07-29T11:46:47;28.20;40.50
49253;DHT22;35103;47.952;-1.502;2022-07-29T11:49:13;28.00;41.10
49253;DHT22;35103;47.952;-1.502;2022-07-29T11:51:59;28.00;41.10
49253;DHT22;35103;47.952;-1.502;2022-07-29T11:54:28;28.00;40.90
49253;DHT22;35103;47.952;-1.502;2022-07-29T11:56:57;27.90;40.80
49253;DHT22;35103;47.952;-1.502;2022-07-29T11:59:24;27.90;40.70
49253;DHT22;35103;47.952;-1.502;2022-07-29T12:01:55;27.90;40.60
49253;DHT22;35103;47.952;-1.502;2022-07-29T12:04:20;27.90;41.00
49253;DHT22;35103;47.952;-1.502;2022-07-29T12:06:54;27.90;41.00
49253;DHT22;35103;47.952;-1.502;2022-07-29T12:09:21;27.90;41.00
49253;DHT22;35103;47.952;-1.502;2022-07-29T12:11:47;28.00;40.60
49253;DHT22;35103;47.952;-1.502;2022-07-29T12:14:31;28.10;40.60
49253;DHT22;35103;47.952;-1.502;2022-07-29T12:16:58;28.10;40.40
49253;DHT22;35103;47.952;-1.502;2022-07-29T12:19:23;28.20;41.00
49253;DHT22;35103;47.952;-1.502;2022-07-29T12:21:52;28.30;40.50
49253;DHT22;35103;47.952;-1.502;2022-07-29T12:24:18;28.40;40.70
49253;DHT22;35103;47.952;-1.502;2022-07-29T12:26:55;28.50;40.40
49253;DHT22;35103;47.952;-1.502;2022-07-29T12:29:21;28.70;41.30
49253;DHT22;35103;47.952;-1.502;2022-07-29T12:31:52;29.10;40.60
49253;DHT22;35103;47.952;-1.502;2022-07-29T12:34:18;29.50;41.00
49253;DHT22;35103;47.952;-1.502;2022-07-29T12:36:44;29.80;40.00
49253;DHT22;35103;47.952;-1.502;2022-07-29T12:39:10;30.10;39.20
49253;DHT22;35103;47.952;-1.502;2022-07-29T12:41:37;30.20;37.60
49253;DHT22;35103;47.952;-1.502;2022-07-29T12:44:02;30.10;38.00
49253;DHT22;35103;47.952;-1.502;2022-07-29T12:46:28;30.00;38.20
49253;DHT22;35103;47.952;-1.502;2022-07-29T12:48:54;29.90;38.20
49253;DHT22;35103;47.952;-1.502;2022-07-29T12:51:34;29.80;37.80
49253;DHT22;35103;47.952;-1.502;2022-07-29T12:54:07;29.80;38.70
49253;DHT22;35103;47.952;-1.502;2022-07-29T12:56:33;29.80;37.90
49253;DHT22;35103;47.952;-1.502;2022-07-29T12:58:58;29.80;37.60
49253;DHT22;35103;47.952;-1.502;2022-07-29T13:01:24;29.70;37.80
49253;DHT22;35103;47.952;-1.502;2022-07-29T13:06:57;29.60;37.70
49253;DHT22;35103;47.952;-1.502;2022-07-29T13:09:19;29.60;38.40
49253;DHT22;35103;47.952;-1.502;2022-07-29T13:11:45;29.70;37.80
49253;DHT22;35103;47.952;-1.502;2022-07-29T13:14:14;29.80;38.40
49253;DHT22;35103;47.952;-1.502;2022-07-29T13:20:23;30.00;37.60
49253;DHT22;35103;47.952;-1.502;2022-07-29T13:22:26;30.10;37.40
49253;DHT22;35103;47.952;-1.502;2022-07-29T13:24:52;30.00;36.90
49253;DHT22;35103;47.952;-1.502;2022-07-29T13:27:26;29.90;37.10
49253;DHT22;35103;47.952;-1.502;2022-07-29T13:29:54;29.90;37.40
49253;DHT22;35103;47.952;-1.502;2022-07-29T13:32:20;29.90;37.30
49253;DHT22;35103;47.952;-1.502;2022-07-29T13:34:46;29.90;37.50
49253;DHT22;35103;47.952;-1.502;2022-07-29T13:37:11;29.90;37.50
49253;DHT22;35103;47.952;-1.502;2022-07-29T13:39:37;30.00;38.10
49253;DHT22;35103;47.952;-1.502;2022-07-29T13:42:04;30.20;38.10
49253;DHT22;35103;47.952;-1.502;2022-07-29T13:44:29;30.30;38.10
49253;DHT22;35103;47.952;-1.502;2022-07-29T13:46:55;30.60;37.80
49253;DHT22;35103;47.952;-1.502;2022-07-29T13:49:21;30.70;37.50
49253;DHT22;35103;47.952;-1.502;2022-07-29T13:51:47;30.80;37.50
49253;DHT22;35103;47.952;-1.502;2022-07-29T13:54:12;30.90;36.80
49253;DHT22;35103;47.952;-1.502;2022-07-29T13:56:38;30.90;37.20
49253;DHT22;35103;47.952;-1.502;2022-07-29T13:59:04;31.00;37.20
49253;DHT22;35103;47.952;-1.502;2022-07-29T14:01:29;31.10;36.40
49253;DHT22;35103;47.952;-1.502;2022-07-29T14:03:55;31.10;36.80
49253;DHT22;35103;47.952;-1.502;2022-07-29T14:06:20;31.10;36.30
49253;DHT22;35103;47.952;-1.502;2022-07-29T14:08:46;31.10;35.90
49253;DHT22;35103;47.952;-1.502;2022-07-29T14:11:11;30.90;35.70
49253;DHT22;35103;47.952;-1.502;2022-07-29T14:13:37;30.80;36.40
49253;DHT22;35103;47.952;-1.502;2022-07-29T14:16:02;30.80;36.70
49253;DHT22;35103;47.952;-1.502;2022-07-29T14:18:28;31.00;36.70
49253;DHT22;35103;47.952;-1.502;2022-07-29T14:20:54;31.10;36.50
49253;DHT22;35103;47.952;-1.502;2022-07-29T14:23:19;31.10;36.10
49253;DHT22;35103;47.952;-1.502;2022-07-29T14:25:45;31.30;36.50
49253;DHT22;35103;47.952;-1.502;2022-07-29T14:28:10;31.40;36.50
49253;DHT22;35103;47.952;-1.502;2022-07-29T14:30:36;31.60;36.00
49253;DHT22;35103;47.952;-1.502;2022-07-29T14:33:01;31.70;35.70
49253;DHT22;35103;47.952;-1.502;2022-07-29T14:35:27;31.70;35.00
49253;DHT22;35103;47.952;-1.502;2022-07-29T14:37:53;31.80;35.90
49253;DHT22;35103;47.952;-1.502;2022-07-29T14:40:19;31.80;35.50
49253;DHT22;35103;47.952;-1.502;2022-07-29T14:42:45;31.90;35.70
49253;DHT22;35103;47.952;-1.502;2022-07-29T14:45:11;32.00;34.70
49253;DHT22;35103;47.952;-1.502;2022-07-29T14:47:37;32.10;34.80
49253;DHT22;35103;47.952;-1.502;2022-07-29T14:50:04;32.10;33.80
49253;DHT22;35103;47.952;-1.502;2022-07-29T14:52:29;32.00;33.20
49253;DHT22;35103;47.952;-1.502;2022-07-29T14:55:02;31.80;33.60
49253;DHT22;35103;47.952;-1.502;2022-07-29T14:57:28;31.70;34.40
49253;DHT22;35103;47.952;-1.502;2022-07-29T14:59:53;31.70;34.60
49253;DHT22;35103;47.952;-1.502;2022-07-29T15:02:19;31.70;34.60
49253;DHT22;35103;47.952;-1.502;2022-07-29T15:04:44;31.80;34.50
49253;DHT22;35103;47.952;-1.502;2022-07-29T15:07:10;31.70;34.60
49253;DHT22;35103;47.952;-1.502;2022-07-29T15:09:36;31.80;34.40
49253;DHT22;35103;47.952;-1.502;2022-07-29T15:12:01;31.90;34.70
49253;DHT22;35103;47.952;-1.502;2022-07-29T15:14:27;31.90;33.70
49253;DHT22;35103;47.952;-1.502;2022-07-29T15:16:52;31.90;34.60
49253;DHT22;35103;47.952;-1.502;2022-07-29T15:19:18;32.00;34.00
49253;DHT22;35103;47.952;-1.502;2022-07-29T15:21:44;31.90;34.10
49253;DHT22;35103;47.952;-1.502;2022-07-29T15:24:09;31.80;34.10
49253;DHT22;35103;47.952;-1.502;2022-07-29T15:26:35;31.80;34.10
49253;DHT22;35103;47.952;-1.502;2022-07-29T15:29:00;31.90;34.00
49253;DHT22;35103;47.952;-1.502;2022-07-29T15:31:26;31.80;33.80
49253;DHT22;35103;47.952;-1.502;2022-07-29T15:33:54;31.80;34.10
49253;DHT22;35103;47.952;-1.502;2022-07-29T15:36:20;31.80;33.70
49253;DHT22;35103;47.952;-1.502;2022-07-29T15:38:45;31.70;33.90
49253;DHT22;35103;47.952;-1.502;2022-07-29T15:43:45;31.70;33.90
49253;DHT22;35103;47.952;-1.502;2022-07-29T15:46:14;31.70;34.40
49253;DHT22;35103;47.952;-1.502;2022-07-29T15:48:43;31.60;33.70
49253;DHT22;35103;47.952;-1.502;2022-07-29T15:51:08;31.70;34.60
49253;DHT22;35103;47.952;-1.502;2022-07-29T15:53:34;31.90;34.90
49253;DHT22;35103;47.952;-1.502;2022-07-29T15:56:00;32.00;33.50
49253;DHT22;35103;47.952;-1.502;2022-07-29T15:58:25;32.10;33.80
49253;DHT22;35103;47.952;-1.502;2022-07-29T16:00:51;32.30;34.10
49253;DHT22;35103;47.952;-1.502;2022-07-29T16:03:16;32.40;33.70
49253;DHT22;35103;47.952;-1.502;2022-07-29T16:05:42;32.50;34.20
49253;DHT22;35103;47.952;-1.502;2022-07-29T16:08:11;32.70;33.20
49253;DHT22;35103;47.952;-1.502;2022-07-29T16:10:36;32.80;32.30
49253;DHT22;35103;47.952;-1.502;2022-07-29T16:13:04;33.00;34.60
49253;DHT22;35103;47.952;-1.502;2022-07-29T16:15:29;33.90;33.70
49253;DHT22;35103;47.952;-1.502;2022-07-29T16:17:55;35.10;33.10
49253;DHT22;35103;47.952;-1.502;2022-07-29T16:20:21;36.30;30.80